Time;durP1;ratioP1;P1;durP2;ratioP2;P2;SDS_P1;SDS_P2;PMS_P1;PMS_P2;Temp;Humidity;BMP_temperature;BMP_pressure;BME280_temperature;BME280_humidity;BME280_pressure;Samples;Min_cycle;Max_cycle;Signal;HPM_P1;HPM_P2
2023/11/25 00:01:17;;;;;;;2.77;1.60;;;;;;;-141.84;100.00;95820.25;5007346;28;20226;-67
2023/11/25 00:03:45;;;;;;;1.80;1.40;;;;;;;-141.84;100.00;93964.47;5030303;28;20227;-66
2023/11/25 00:06:14;;;;;;;1.60;1.30;;;;;;;-141.84;100.00;93699.44;5021472;28;20309;-66
2023/11/25 00:08:43;;;;;;;3.50;2.47;;;;;;;-141.84;100.00;93434.41;5011296;28;20227;-66
2023/11/25 00:11:13;;;;;;;1.80;1.70;;;;;;;-141.84;100.00;92904.41;5010987;28;20213;-66
2023/11/25 00:13:55;;;;;;;3.83;1.57;;;;;;;-141.84;100.00;89461.13;5011350;28;20257;-67
2023/11/25 00:16:24;;;;;;;2.43;1.53;;;;;;;-141.84;100.00;83905.09;5011587;28;20254;-66
2023/11/25 00:18:52;;;;;;;3.53;1.20;;;;;;;-141.84;100.00;82583.34;5010867;28;20231;-66
2023/11/25 00:21:21;;;;;;;3.40;1.90;;;;;;;-141.84;100.00;84433.91;5011537;28;20294;-66
2023/11/25 00:23:49;;;;;;;2.10;1.30;;;;;;;-141.84;100.00;85491.75;5011144;28;20229;-65
2023/11/25 00:26:20;;;;;;;2.30;1.23;;;;;;;-141.84;100.00;89725.88;5010733;28;20798;-65
2023/11/25 00:28:49;;;;;;;2.00;1.20;;;;;;;-141.84;100.00;94229.53;5011315;28;20233;-66
2023/11/25 00:31:18;;;;;;;4.60;1.87;;;;;;;-141.84;100.00;93964.47;5011105;28;20243;-66
2023/11/25 00:33:47;;;;;;;1.97;1.17;;;;;;;-141.84;100.00;91049.97;5010596;28;20227;-65
2023/11/25 00:36:15;;;;;;;2.97;1.40;;;;;;;-141.84;100.00;92374.47;5011248;28;20606;-65
2023/11/25 00:38:44;;;;;;;2.73;1.30;;;;;;;-141.84;100.00;95024.81;4996981;28;20313;-65
2023/11/25 00:41:13;;;;;;;2.30;1.30;;;;;;;-141.84;100.00;97146.31;4991574;28;20259;-66
2023/11/25 00:43:42;;;;;;;4.50;1.40;;;;;;;-141.84;100.00;98738.19;5007053;28;20250;-65
2023/11/25 00:46:11;;;;;;;2.73;1.50;;;;;;;-141.84;100.00;101658.25;5010832;28;20436;-67
2023/11/25 00:48:42;;;;;;;3.20;1.73;;;;;;;-141.84;100.00;99799.78;4990781;28;20235;-66
2023/11/25 00:51:10;;;;;;;4.00;2.03;;;;;;;-141.84;100.00;92374.47;4993722;28;20233;-66
2023/11/25 00:53:39;;;;;;;2.70;2.00;;;;;;;-141.84;100.00;88402.22;5003131;28;20652;-66
2023/11/25 00:56:08;;;;;;;5.97;2.30;;;;;;;-141.84;100.00;89196.38;5003913;28;20203;-66
2023/11/25 00:58:36;;;;;;;3.70;2.10;;;;;;;-141.84;100.00;88931.63;5010350;28;20410;-65
2023/11/25 01:01:06;;;;;;;4.43;2.40;;;;;;;-141.84;100.00;84433.91;5010877;28;20241;-66
2023/11/25 01:03:35;;;;;;;3.43;2.37;;;;;;;-141.84;100.00;86020.75;5010247;28;20234;-65
2023/11/25 01:06:08;;;;;;;3.93;2.57;;;;;;;-141.84;100.00;87608.25;5010556;28;20589;-65
2023/11/25 01:08:37;;;;;;;3.13;2.70;;;;;;;-141.84;100.00;79677.06;5010813;28;20191;-65
2023/11/25 01:11:06;;;;;;;3.57;2.70;;;;;;;-141.84;100.00;80997.84;5011362;28;20279;-65
2023/11/25 01:13:35;;;;;;;3.97;2.60;;;;;;;-141.84;100.00;76508.97;5010172;28;20226;-66
2023/11/25 01:16:15;;;;;;;4.00;2.60;;;;;;;-141.84;100.00;73343.38;5010524;28;20227;-65
2023/11/25 01:18:44;;;;;;;3.20;2.60;;;;;;;-141.84;100.00;70970.84;5009789;28;20732;-66
2023/11/25 01:21:13;;;;;;;3.87;2.53;;;;;;;-141.84;100.00;70970.84;5010296;28;20747;-66
2023/11/25 01:23:42;;;;;;;5.57;3.00;;;;;;;-141.84;100.00;69916.81;5013586;28;20238;-65
2023/11/25 01:26:11;;;;;;;3.73;2.20;;;;;;;-141.84;100.00;64387.81;5013836;28;20263;-66
2023/11/25 01:28:42;;;;;;;5.77;2.70;;;;;;;-141.84;100.00;68072.97;5014297;28;20231;-66
2023/11/25 01:31:12;;;;;;;3.67;2.43;;;;;;;-141.84;100.00;64914.06;5014297;28;20304;-65
2023/11/25 01:33:41;;;;;;;4.90;2.60;;;;;;;-141.84;100.00;70707.31;5013872;28;20266;-64
2023/11/25 01:36:10;;;;;;;5.73;2.57;;;;;;;-141.84;100.00;66756.44;5014166;28;20282;-65
2023/11/25 01:38:38;;;;;;;3.47;2.53;;;;;;;-141.84;100.00;58866.47;5014299;28;20334;-65
2023/11/25 01:41:07;;;;;;;3.73;1.97;;;;;;;-141.84;100.00;62546.50;5014430;28;20583;-65
2023/11/25 01:43:37;;;;;;;3.80;2.33;;;;;;;-141.84;100.00;58603.75;5013708;28;20319;-65
2023/11/25 01:46:07;;;;;;;4.97;2.70;;;;;;;-141.84;100.00;65440.38;5014124;28;20245;-65
2023/11/25 01:48:38;;;;;;;4.20;3.03;;;;;;;-141.84;100.00;68336.31;4994785;28;20227;-66
2023/11/25 01:51:07;;;;;;;3.53;2.60;;;;;;;-141.84;100.00;67809.63;4996113;28;20238;-65
2023/11/25 01:53:38;;;;;;;7.60;2.80;;;;;;;-141.84;100.00;64914.06;5014103;28;20286;-65
2023/11/25 01:56:09;;;;;;;5.53;2.60;;;;;;;-141.84;100.00;63072.50;5013308;28;20655;-65
2023/11/25 01:58:39;;;;;;;6.67;3.10;;;;;;;-141.84;100.00;70970.84;5013518;28;20648;-66
2023/11/25 02:01:08;;;;;;;6.23;2.77;;;;;;;-141.84;100.00;62283.53;5013560;28;20314;-65
2023/11/25 02:03:38;;;;;;;4.70;2.90;;;;;;;-141.84;100.00;63072.50;5032013;28;20226;-66
2023/11/25 02:06:07;;;;;;;5.43;2.80;;;;;;;-141.84;100.00;56239.94;5033166;28;20280;-65
2023/11/25 02:08:35;;;;;;;6.20;2.80;;;;;;;-141.84;99.47;49681.28;5033420;28;20301;-65
2023/11/25 02:11:04;;;;;;;5.37;2.83;;;;;;;-141.84;100.00;58603.75;5033667;28;20630;-65
2023/11/25 02:13:32;;;;;;;3.10;2.80;;;;;;;-141.84;100.00;53090.44;5018515;28;20230;-65
2023/11/25 02:16:01;;;;;;;6.03;3.00;;;;;;;-141.84;99.23;48632.88;5013147;28;20540;-65
2023/11/25 02:18:30;;;;;;;4.63;3.00;;;;;;;-141.84;99.00;47584.78;5012550;28;20772;-66
2023/11/25 02:21:00;;;;;;;3.33;2.57;;;;;;;-141.84;97.35;39941.25;5013318;28;20253;-65
2023/11/25 02:23:30;;;;;;;4.83;2.60;;;;;;;-141.84;96.08;31894.56;5013359;28;20628;-65
2023/11/25 02:25:59;;;;;;;9.00;3.37;;;;;;;-141.84;98.42;43133.44;5012568;28;20716;-64
2023/11/25 02:28:31;;;;;;;5.40;2.80;;;;;;;-141.84;97.63;38872.97;5012734;28;20768;-65
2023/11/25 02:30:59;;;;;;;5.77;2.43;;;;;;;-141.84;97.55;38697.34;5012638;28;20243;-65
2023/11/25 02:33:34;;;;;;;5.97;2.43;;;;;;;-141.84;97.36;36929.19;5011903;28;20767;-65
2023/11/25 02:36:03;;;;;;;5.53;2.33;;;;;;;-141.84;98.32;44180.38;5013048;28;20222;-65
2023/11/25 02:38:33;;;;;;;3.90;2.27;;;;;;;-141.84;98.75;46275.03;5013288;28;20271;-66
2023/11/25 02:41:01;;;;;;;5.60;2.03;;;;;;;-141.84;95.94;30871.31;5013155;28;20229;-64
2023/11/25 02:43:30;;;;;;;7.27;2.30;;;;;;;-141.84;96.81;34247.88;5012608;28;20336;-65
2023/11/25 02:45:59;;;;;;;4.37;2.37;;;;;;;-141.84;98.10;40607.25;5012597;28;20230;-64
2023/11/25 02:48:27;;;;;;;8.70;2.50;;;;;;;-141.84;98.87;45751.28;4994406;28;20230;-65
2023/11/25 02:50:56;;;;;;;4.07;1.90;;;;;;;-141.84;100.00;53090.44;4993693;28;20254;-65
2023/11/25 02:53:24;;;;;;;3.43;2.23;;;;;;;-141.84;100.00;51778.88;5012759;28;20801;-65
2023/11/25 02:55:54;;;;;;;6.93;2.10;;;;;;;-141.84;98.59;44703.94;5005864;28;20202;-65
2023/11/25 02:58:23;;;;;;;4.57;2.03;;;;;;;-141.84;98.42;42871.75;5012556;28;20631;-65
2023/11/25 03:01:00;;;;;;;3.83;1.80;;;;;;;-141.84;97.17;34694.66;5012306;28;20253;-64
2023/11/25 03:03:29;;;;;;;4.50;1.83;;;;;;;-141.84;97.43;36331.16;5029893;28;20307;-65
2023/11/25 03:05:59;;;;;;;4.40;1.93;;;;;;;-141.84;100.00;51778.88;5032407;28;20241;-65
2023/11/25 03:08:27;;;;;;;4.57;1.87;;;;;;;-141.84;100.00;57027.72;5032386;28;20301;-66
2023/11/25 03:10:57;;;;;;;3.47;1.70;;;;;;;-141.84;100.00;66229.97;5020182;28;20241;-64
2023/11/25 03:13:26;;;;;;;6.37;2.37;;;;;;;-141.84;100.00;57815.66;5011939;28;20261;-65
2023/11/25 03:15:54;;;;;;;5.50;2.07;;;;;;;-141.84;99.57;51254.38;5011643;28;20737;-65
2023/11/25 03:18:23;;;;;;;4.13;2.07;;;;;;;-141.84;98.35;43918.63;5010323;28;20238;-65
2023/11/25 03:20:51;;;;;;;4.03;1.70;;;;;;;-141.84;97.92;41302.00;5011662;28;20247;-65
2023/11/25 03:23:20;;;;;;;2.70;1.63;;;;;;;-141.84;98.44;42348.44;5011250;28;20265;-66
2023/11/25 03:25:49;;;;;;;3.80;1.77;;;;;;;-141.84;98.09;39694.06;5011620;28;20742;-64
2023/11/25 03:28:20;;;;;;;4.20;1.80;;;;;;;-141.84;99.59;47584.78;4993536;28;20243;-65
2023/11/25 03:30:49;;;;;;;4.40;1.87;;;;;;;-141.84;99.05;45751.28;4991741;28;20310;-64
2023/11/25 03:33:17;;;;;;;3.23;1.80;;;;;;;-141.84;98.19;42348.44;4992137;28;20552;-64
2023/11/25 03:35:46;;;;;;;4.90;2.10;;;;;;;-141.84;100.00;49943.41;4991867;28;20227;-65
2023/11/25 03:38:15;;;;;;;3.10;1.90;;;;;;;-141.84;100.00;51516.59;4992525;28;20559;-65
2023/11/25 03:40:44;;;;;;;3.80;1.90;;;;;;;-141.84;98.75;44703.94;4991393;28;20234;-64
2023/11/25 03:43:13;;;;;;;3.50;2.33;;;;;;;-141.84;99.96;49943.41;5002825;28;20241;-65
2023/11/25 03:45:43;;;;;;;5.73;2.30;;;;;;;-141.84;100.00;56502.53;5010899;28;20256;-64
2023/11/25 03:48:12;;;;;;;5.73;2.00;;;;;;;-141.84;99.40;49157.03;5011066;28;20598;-64
2023/11/25 03:50:41;;;;;;;2.97;1.67;;;;;;;-141.84;100.00;50992.13;5010830;28;20758;-68
2023/11/25 03:53:10;;;;;;;5.63;1.90;;;;;;;-141.84;99.45;48894.97;5011496;28;20289;-66
2023/11/25 03:55:39;;;;;;;6.67;2.27;;;;;;;-141.84;96.76;34560.00;5010892;28;20261;-65
2023/11/25 03:58:07;;;;;;;4.60;1.80;;;;;;;-141.84;96.51;31030.28;5010774;28;20231;-66
2023/11/25 04:00:36;;;;;;;4.47;1.90;;;;;;;-141.84;96.34;30480.00;5011100;28;20236;-65
2023/11/25 04:03:06;;;;;;;5.13;1.70;;;;;;;-141.84;97.22;34880.31;5025287;28;20320;-65
2023/11/25 04:05:36;;;;;;;4.20;1.90;;;;;;;-141.84;96.60;32779.44;5016793;28;20207;-65
2023/11/25 04:08:04;;;;;;;5.60;2.00;;;;;;;-141.84;96.96;34772.16;5010666;28;20314;-64
2023/11/25 04:10:33;;;;;;;4.93;2.00;;;;;;;-141.84;94.87;25453.66;5010112;28;20289;-65
2023/11/25 04:13:01;;;;;;;2.70;1.77;;;;;;;-141.84;95.68;27448.75;5010238;28;20259;-65
2023/11/25 04:15:30;;;;;;;3.47;1.83;;;;;;;-141.84;95.18;26145.72;5014462;28;20717;-65
2023/11/25 04:17:58;;;;;;;4.57;2.30;;;;;;;-141.84;95.82;28744.06;5010554;28;20270;-65
2023/11/25 04:20:29;;;;;;;4.03;1.80;;;;;;;-141.84;94.32;24373.06;5009678;28;20230;-64
2023/11/25 04:23:05;;;;;;;4.17;1.90;;;;;;;-141.84;95.82;27963.97;5011638;28;20233;-65
2023/11/25 04:25:35;;;;;;;4.20;1.67;;;;;;;-141.84;95.86;27941.56;5010779;28;20998;-65
2023/11/25 04:28:06;;;;;;;5.03;2.03;;;;;;;-141.84;96.48;30679.72;5010635;28;20237;-65
2023/11/25 04:30:34;;;;;;;7.83;2.20;;;;;;;-141.84;97.40;34759.94;5011066;28;20234;-65
2023/11/25 04:33:03;;;;;;;3.10;1.47;;;;;;;-141.84;96.40;29854.41;5010638;28;20651;-64
2023/11/25 04:35:33;;;;;;;3.23;1.60;;;;;;;-141.84;96.92;33342.28;5010439;28;20202;-65
2023/11/25 04:38:02;;;;;;;6.53;1.80;;;;;;;-141.84;97.83;37478.34;5011207;28;20199;-65
2023/11/25 04:40:30;;;;;;;3.17;1.50;;;;;;;-141.84;96.46;32653.03;5003252;28;20231;-66
2023/11/25 04:42:59;;;;;;;5.60;1.73;;;;;;;-141.84;95.94;28845.94;5000737;28;20227;-66
2023/11/25 04:45:28;;;;;;;3.13;1.43;;;;;;;-141.84;96.26;29275.78;5010867;28;20234;-65
2023/11/25 04:47:56;;;;;;;6.00;1.70;;;;;;;-141.84;97.04;32118.81;4997386;28;20258;-66
2023/11/25 04:50:26;;;;;;;2.20;1.30;;;;;;;-141.84;97.84;37645.75;4994735;28;20215;-65
2023/11/25 04:52:59;;;;;;;4.00;1.47;;;;;;;-141.84;96.76;32750.91;5010754;28;20394;-66
2023/11/25 04:55:28;;;;;;;4.30;1.30;;;;;;;-141.84;96.33;31686.63;5010372;28;20743;-65
2023/11/25 04:57:57;;;;;;;4.60;1.50;;;;;;;-141.84;94.17;24076.00;5009733;28;20236;-64
2023/11/25 05:00:25;;;;;;;2.77;1.50;;;;;;;-141.84;93.80;23087.31;5010672;28;20230;-65
2023/11/25 05:02:54;;;;;;;2.00;1.30;;;;;;;-141.84;93.28;22393.75;5010402;28;20261;-64
2023/11/25 05:05:23;;;;;;;2.57;1.23;;;;;;;-141.84;94.54;24710.84;5010190;28;20234;-65
2023/11/25 05:07:56;;;;;;;7.57;1.50;;;;;;;-141.84;93.44;22351.03;5011171;28;20597;-65
2023/11/25 05:10:24;;;;;;;3.53;1.40;;;1.80;99.90;;;-141.84;97.42;33521.75;5010223;28;20770;-64
2023/11/25 05:12:53;;;;;;;2.43;1.60;;;1.90;99.90;;;-141.84;98.88;42871.75;5010272;28;20280;-65
2023/11/25 05:15:24;;;;;;;4.10;1.40;;;1.80;99.90;;;-141.84;98.49;40778.88;5010422;28;20734;-65
2023/11/25 05:17:54;;;;;;;4.10;1.37;;;1.60;99.90;;;-141.84;100.00;49681.28;5010276;28;20227;-65
2023/11/25 05:20:23;;;;;;;4.93;2.03;;;;;;;-141.84;99.90;50992.13;5009132;28;20289;-65
2023/11/25 05:22:51;;;;;;;3.93;1.63;;;;;;;-141.84;98.53;42348.44;5010765;28;20245;-65
2023/11/25 05:25:23;;;;;;;7.50;2.20;;;;;;;-141.84;98.95;46275.03;5010206;28;20236;-65
2023/11/25 05:27:52;;;;;;;4.77;1.43;;;;;;;-141.84;97.96;37672.28;5010133;28;20733;-64
2023/11/25 05:30:23;;;;;;;2.30;1.30;;;;;;;-141.84;97.90;37715.16;5010109;28;20312;-65
2023/11/25 05:32:58;;;;;;;1.97;1.30;;;;;;;-141.84;96.92;31442.00;5009996;28;20329;-64
2023/11/25 05:35:26;;;;;;;2.57;1.37;;;;;;;-141.84;98.69;39839.09;5009862;28;20191;-65
2023/11/25 05:37:55;;;;;;;2.80;1.23;;;;;;;-141.84;99.29;45489.41;5010944;28;20297;-64
2023/11/25 05:40:29;;;;;;;3.40;1.53;;;;;;;-141.84;100.00;54402.44;5010233;28;20224;-66
2023/11/25 05:43:00;;;;;;;2.77;1.33;;;;;;;-141.84;100.00;64124.72;5006717;28;20722;-64
2023/11/25 05:45:30;;;;;;;5.07;1.30;;;;;;;-141.84;100.00;67019.72;4990664;28;20231;-65
2023/11/25 05:47:59;;;;;;;4.90;1.50;;;;;;;-141.84;100.00;71234.38;4990430;28;20239;-65
2023/11/25 05:50:27;;;;;;;2.27;1.30;;;;;;;-141.84;100.00;75189.69;4994981;28;20205;-65
2023/11/25 05:52:56;;;;;;;3.70;1.20;;;;;;;-141.84;100.00;74662.09;5010258;28;20230;-66
2023/11/25 05:55:26;;;;;;;6.20;1.60;;;;;;;-141.84;100.00;76245.09;5009886;28;20288;-64
2023/11/25 05:57:55;;;;;;;3.77;1.83;;;;;;;-141.84;100.00;74134.56;5010223;28;20254;-64
2023/11/25 06:00:29;;;;;;;5.30;1.60;;;;;;;-141.84;100.00;74134.56;5010314;28;20230;-65
2023/11/25 06:02:58;;;;;;;5.07;1.60;;;;;;;-141.84;100.00;78884.81;5009695;28;20226;-65
2023/11/25 06:05:27;;;;;;;5.50;2.13;;;;;;;-141.84;100.00;81526.28;5009378;28;20199;-66
2023/11/25 06:07:56;;;;;;;6.83;1.90;;;;;;;-141.84;100.00;79412.97;5010493;28;20230;-64
2023/11/25 06:10:25;;;;;;;6.17;1.70;;;;;;;-141.84;100.00;73870.81;5012186;28;20726;-65
2023/11/25 06:12:54;;;;;;;3.97;1.87;;;;;;;-141.84;100.00;72552.38;5005746;28;20594;-65
2023/11/25 06:15:23;;;;;;;4.20;2.07;;;;;;;-141.84;100.00;77564.72;4993272;28;20795;-66
2023/11/25 06:17:52;;;;;;;2.00;1.50;;;;;;;-141.84;100.00;81262.06;4993674;28;20696;-65
2023/11/25 06:20:24;;;;;;;3.53;1.57;;;;;;;-141.84;100.00;75453.50;4996821;28;20203;-66
2023/11/25 06:22:53;;;;;;;4.23;1.83;;;;;;;-141.84;100.00;69389.94;5010704;28;20396;-65
2023/11/25 06:25:23;;;;;;;5.20;2.00;;;;;;;-141.84;100.00;66493.19;5002712;28;20228;-64
2023/11/25 06:27:53;;;;;;;5.80;2.00;;;;;;;-141.84;100.00;64124.72;4998892;28;20223;-65
2023/11/25 06:30:22;;;;;;;4.37;1.90;;;;;;;-141.84;100.00;72552.38;4993101;28;20319;-65
2023/11/25 06:32:51;;;;;;;4.70;1.87;;;;;;;-141.84;100.00;70970.84;4993363;28;20309;-65
2023/11/25 06:35:21;;;;;;;3.20;2.00;;;;;;;-141.84;100.00;67019.72;4993083;28;20214;-65
2023/11/25 06:37:49;;;;;;;3.53;1.60;;;;;;;-141.84;100.00;71497.94;4993812;28;20294;-65
2023/11/25 06:40:18;;;;;;;4.53;3.07;;;;;;;-141.84;100.00;67546.31;5004962;28;20280;-65
2023/11/25 06:42:46;;;;;;;4.17;2.60;;;;;;;-141.84;100.00;53090.44;5012788;28;20234;-65
2023/11/25 06:45:16;;;;;;;2.83;1.60;;;;;;;-141.84;100.00;54927.34;5012565;28;20306;-64
2023/11/25 06:47:45;;;;;;;3.53;2.20;;;;;;;-141.84;100.00;51254.38;5012565;28;20321;-65
2023/11/25 06:50:15;;;;;;;3.33;2.43;;;;;;;-141.84;100.00;57027.72;5012045;28;20491;-65
2023/11/25 06:52:49;;;;;;;3.97;1.80;;;;;;;-141.84;99.74;50729.94;5012536;28;20225;-65
2023/11/25 06:55:20;;;;;;;3.60;1.70;;;;;;;-141.84;99.52;48370.84;5012346;28;20242;-65
2023/11/25 06:57:49;;;;;;;3.53;2.37;;;1.30;99.90;;;-141.84;97.80;40317.13;5012759;28;20253;-65
2023/11/25 07:00:19;;;;;;;2.17;1.40;;;1.40;99.90;;;-141.84;98.12;40284.44;5012485;28;20250;-64
2023/11/25 07:02:48;;;;;;;2.50;1.40;;;1.50;99.90;;;-141.84;97.43;37492.63;5012502;28;20262;-64
2023/11/25 07:05:17;;;;;;;4.40;1.40;;;1.60;99.90;;;-141.84;98.22;39573.53;5012360;28;20203;-65
2023/11/25 07:07:45;;;;;;;3.63;1.80;;;1.60;99.90;;;-141.84;98.13;39902.41;5012644;28;20295;-65
2023/11/25 07:10:14;;;;;;;4.93;1.40;;;1.60;99.90;;;-141.84;96.15;30078.56;5011970;28;20234;-65
2023/11/25 07:12:43;;;;;;;4.67;1.63;;;1.70;99.90;;;-141.84;95.99;32073.97;5012196;28;20292;-64
2023/11/25 07:15:12;;;;;;;3.27;1.70;;;1.70;99.90;;;-141.84;96.06;28664.63;5012222;28;20237;-65
2023/11/25 07:17:41;;;;;;;2.27;1.70;;;1.70;99.90;;;-141.84;97.10;33850.13;5012527;28;20781;-65
2023/11/25 07:20:13;;;;;;;3.47;1.50;;;1.70;99.90;;;-141.84;97.32;34657.91;5010957;28;20195;-65
2023/11/25 07:22:42;;;;;;;2.43;1.30;;;1.80;99.90;;;-141.84;95.30;28524.09;5012136;28;20273;-64
2023/11/25 07:25:12;;;;;;;4.03;1.60;;;1.90;99.90;;;-141.84;93.95;23636.53;5011789;28;20222;-64
2023/11/25 07:27:44;;;;;;;5.00;1.30;;;2.00;99.90;;;-141.84;91.79;20811.84;5011854;28;20230;-64
2023/11/25 07:30:14;;;;;;;5.27;1.80;;;2.00;99.90;;;-141.84;92.08;20927.72;5011558;28;20801;-64
2023/11/25 07:32:44;;;;;;;5.50;1.53;;;2.00;99.90;;;-141.84;92.40;21523.44;5011432;28;20234;-64
2023/11/25 07:35:13;;;;;;;4.67;1.50;;;2.10;99.90;;;-141.84;91.78;20962.28;5012242;28;20199;-65
2023/11/25 07:37:41;;;;;;;3.83;1.40;;;2.10;99.90;;;-141.84;90.63;20023.19;5011755;28;20230;-64
2023/11/25 07:40:14;;;;;;;5.10;1.33;;;2.20;99.90;;;-141.84;91.60;20521.16;5006792;28;20727;-65
2023/11/25 07:42:45;;;;;;;6.17;1.93;;;2.20;99.90;;;-141.84;92.22;21206.25;4999773;28;20237;-64
2023/11/25 07:45:14;;;;;;;3.20;1.90;;;2.30;99.90;;;-141.84;91.75;20726.47;5011861;28;20254;-65
2023/11/25 07:47:44;;;;;;;3.60;2.00;;;2.40;99.90;;;-141.84;90.34;20043.50;5011032;28;20687;-64
2023/11/25 07:50:14;;;;;;;4.57;2.20;;;2.30;99.90;;;-141.84;87.25;19070.06;5011371;28;20223;-64
2023/11/25 07:52:42;;;;;;;6.00;2.20;;;2.50;99.90;;;-141.84;87.39;19108.69;5011494;28;20249;-65
2023/11/25 07:55:11;;;;;;;4.50;2.50;;;2.60;99.90;;;-141.84;88.52;19226.53;4991636;28;20255;-65
2023/11/25 07:57:39;;;;;;;5.00;2.50;;;2.60;99.90;;;-141.84;88.31;19254.97;4992270;28;20281;-65
2023/11/25 08:00:14;;;;;;;7.97;3.63;;;2.70;99.90;;;-141.84;86.18;18946.13;5011388;28;20231;-64
2023/11/25 08:02:47;;;;;;;3.33;2.00;;;2.70;99.90;;;-141.84;85.82;18868.91;5010533;28;20321;-65
2023/11/25 08:05:22;;;;;;;6.23;2.37;;;2.80;99.90;;;-141.84;86.38;18938.00;5011889;28;20192;-66
2023/11/25 08:07:52;;;;;;;6.67;1.90;;;2.80;99.90;;;-141.84;86.64;18968.47;4992121;28;20222;-65
2023/11/25 08:10:23;;;;;;;5.53;2.10;;;2.80;99.90;;;-141.84;85.02;18840.47;5007593;28;20244;-65
2023/11/25 08:12:51;;;;;;;5.20;2.07;;;2.80;99.90;;;-141.84;85.27;18866.88;5011286;28;20250;-65
2023/11/25 08:15:19;;;;;;;5.47;1.90;;;2.90;99.90;;;-141.84;84.51;18816.06;5010879;28;20848;-65
2023/11/25 08:17:49;;;;;;;5.53;2.53;;;2.90;99.90;;;-141.84;83.64;18753.09;5010776;28;20327;-64
2023/11/25 08:20:17;;;;;;;4.37;1.97;;;3.00;99.90;;;-141.84;85.45;18832.34;5011077;28;20604;-65
2023/11/25 08:22:45;;;;;;;4.37;2.60;;;2.90;99.90;;;-141.84;85.53;18885.16;5011502;28;20218;-64
2023/11/25 08:25:14;;;;;;;7.83;2.13;;;2.90;99.90;;;-141.84;84.24;18818.09;5011014;28;20223;-65
2023/11/25 08:27:42;;;;;;;4.40;2.03;;;2.90;99.90;;;-141.84;84.74;18846.56;5011018;28;20261;-64
2023/11/25 08:30:11;;;;;;;4.47;2.20;;;2.90;99.90;;;-141.84;84.55;18787.63;5010736;28;20231;-65
2023/11/25 08:32:40;;;;;;;8.97;4.13;;;2.90;99.90;;;-141.84;84.07;18795.75;4998360;28;20267;-65
2023/11/25 08:35:12;;;;;;;4.50;2.20;;;2.90;99.90;;;-141.84;84.21;18797.78;4991964;28;20200;-65
2023/11/25 08:37:41;;;;;;;3.97;1.90;;;3.00;99.90;;;-141.84;83.00;18751.06;4990973;28;20285;-64
2023/11/25 08:40:15;;;;;;;6.33;1.70;;;3.10;99.90;;;-141.84;83.36;18761.22;4995575;28;20500;-65
2023/11/25 08:42:45;;;;;;;9.13;2.00;;;3.10;99.90;;;-141.84;84.00;18775.44;5010614;28;20236;-65
2023/11/25 08:45:13;;;;;;;4.93;1.60;;;3.20;99.90;;;-141.84;81.54;18657.59;5010748;28;20690;-64
2023/11/25 08:47:42;;;;;;;2.80;1.50;;;3.20;99.90;;;-141.84;79.88;18686.03;5010276;28;20660;-64
2023/11/25 08:50:15;;;;;;;3.67;1.63;;;3.50;99.90;;;-141.84;78.02;18651.50;5010385;28;20227;-65
2023/11/25 08:52:48;;;;;;;5.70;1.80;;;3.50;99.90;;;-141.84;77.19;18671.81;5010569;28;20220;-66
2023/11/25 08:55:17;;;;;;;6.53;1.57;;;3.70;99.90;;;-141.84;76.92;18643.38;5010470;28;20253;-65
2023/11/25 08:57:47;;;;;;;4.40;1.47;;;3.80;99.90;;;-141.84;77.42;18659.63;5010672;28;20226;-65
2023/11/25 09:00:18;;;;;;;3.60;1.50;;;3.90;99.90;;;-141.84;75.89;18647.44;5010362;28;20229;-64
2023/11/25 09:02:50;;;;;;;5.57;1.43;;;4.00;99.90;;;-141.84;75.49;18635.25;5007561;28;20234;-65
2023/11/25 09:05:22;;;;;;;5.10;1.63;;;4.10;99.90;;;-141.84;76.48;18643.38;5011247;28;20197;-65
2023/11/25 09:07:52;;;;;;;5.77;1.83;;;4.10;99.90;;;-141.84;78.19;18675.88;5010766;28;20210;-65
2023/11/25 09:10:21;;;;;;;4.83;2.17;;;4.10;99.90;;;-141.84;78.66;18661.66;5010384;28;20299;-65
2023/11/25 09:12:51;;;;;;;4.27;1.70;;;4.00;99.90;;;-141.84;77.47;18649.47;5010692;28;20294;-64
2023/11/25 09:15:19;;;;;;;8.47;2.03;;;4.00;99.90;;;-141.84;78.62;18679.94;5010405;28;20737;-64
2023/11/25 09:17:47;;;;;;;3.40;1.77;;;4.00;99.90;;;-141.84;79.11;18673.84;5004096;28;20313;-64
2023/11/25 09:20:18;;;;;;;7.80;2.40;;;4.10;99.90;;;-141.84;78.77;18696.19;5004808;28;20210;-65
2023/11/25 09:22:48;;;;;;;6.20;2.10;;;4.10;99.90;;;-141.84;79.39;18681.97;4997748;28;20229;-65
2023/11/25 09:25:16;;;;;;;5.83;2.07;;;4.10;99.90;;;-141.84;79.28;18690.09;4999600;28;20306;-62
2023/11/25 09:27:45;;;;;;;4.63;2.27;;;4.10;99.90;;;-141.84;79.54;18692.13;4997525;28;20226;-63
2023/11/25 09:30:17;;;;;;;4.37;2.00;;;4.10;99.90;;;-141.84;81.19;18769.34;5010163;28;20781;-64
2023/11/25 09:32:46;;;;;;;3.67;1.80;;;4.00;99.90;;;-141.84;81.08;18740.91;5009509;28;20253;-63
2023/11/25 09:35:17;;;;;;;5.43;2.70;;;4.00;99.90;;;-141.84;80.28;18738.88;5011032;28;20206;-63
2023/11/25 09:37:48;;;;;;;11.00;3.03;;;4.10;99.90;;;-141.84;80.99;18751.06;5010557;28;20221;-62
2023/11/25 09:40:19;;;;;;;6.77;2.77;;;4.00;99.90;;;-141.84;80.71;18742.94;5010063;28;20292;-63
2023/11/25 09:42:48;;;;;;;4.03;2.30;;;4.00;99.90;;;-141.84;81.38;18773.41;5010396;28;20253;-63
2023/11/25 09:45:19;;;;;;;5.07;2.40;;;4.00;99.90;;;-141.84;83.27;18797.78;5014074;28;20233;-63
2023/11/25 09:47:47;;;;;;;5.27;2.47;;;4.00;99.90;;;-141.84;86.20;19033.50;5013299;28;20249;-62
2023/11/25 09:50:16;;;;;;;6.17;2.60;;;3.80;99.90;;;-141.84;89.17;19547.59;5013686;28;20225;-62
2023/11/25 09:52:52;;;;;;;5.23;2.43;;;3.80;99.90;;;-141.84;91.58;20732.56;5013377;28;20312;-62
2023/11/25 09:55:23;;;;;;;8.30;2.57;;;3.70;99.90;;;-141.84;93.21;22965.28;5013771;28;20227;-62
2023/11/25 09:58:03;;;;;;;6.17;2.70;;;3.70;99.90;;;-141.84;95.32;28102.47;5013839;28;20324;-61
2023/11/25 10:00:32;;;;;;;8.07;2.40;;;3.60;99.90;;;-141.84;96.16;32153.50;5013909;28;20226;-62
2023/11/25 10:03:03;;;;;;;5.77;2.97;;;3.50;99.90;;;-141.84;97.59;41745.47;5013242;28;20234;-63
2023/11/25 10:05:32;;;;;;;5.57;2.50;;;3.50;99.90;;;-141.84;97.31;40676.72;5013780;28;20293;-63
2023/11/25 10:08:04;;;;;;;8.43;2.87;;;3.70;99.90;;;-141.84;99.41;49943.41;5013882;28;20674;-63
2023/11/25 10:10:41;;;;;;;6.20;2.70;;;3.30;99.90;;;-141.84;100.00;60180.38;5013391;28;20237;-63
2023/11/25 10:13:14;;;;;;;8.13;3.40;;;3.30;99.90;;;-141.84;100.00;69916.81;5013270;28;20221;-63
2023/11/25 10:15:46;;;;;;;7.67;3.20;;;3.20;99.90;;;-141.84;100.00;78356.72;5012913;28;20239;-63
2023/11/25 10:18:18;;;;;;;9.23;3.30;;;3.10;99.90;;;-141.84;100.00;84169.50;5012505;28;20230;-63
2023/11/25 10:20:54;;;;;;;7.13;3.20;;;3.00;99.90;;;-141.84;100.00;83376.34;5012559;28;20227;-62
2023/11/25 10:23:24;;;;;;;7.63;3.40;;;3.00;99.90;;;-141.84;100.00;85227.25;5012970;28;20229;-62
2023/11/25 10:25:53;;;;;;;5.63;3.40;;;3.00;99.90;;;-141.84;100.00;87079.03;5004994;28;20283;-62
2023/11/25 10:28:27;;;;;;;10.30;3.30;;;2.90;99.90;;;-141.84;100.00;86285.31;4994606;28;20290;-61
2023/11/25 10:30:57;;;;;;;5.50;3.10;;;2.80;99.90;;;-141.84;100.00;88666.94;4992529;28;20223;-62
2023/11/25 10:33:26;;;;;;;6.97;3.33;;;2.80;99.90;;;-141.84;100.00;93169.38;4993402;28;20330;-62
2023/11/25 10:35:59;;;;;;;8.17;3.90;;;2.60;99.90;;;-141.84;100.00;99268.97;4993597;28;20609;-62
2023/11/25 10:38:29;;;;;;;8.33;4.40;;;2.60;99.90;;;-141.84;100.00;104314.66;4993226;28;20759;-62
2023/11/25 10:41:01;;;;;;;7.80;3.87;;;2.50;99.90;;;-141.84;100.00;104048.94;5005176;28;20191;-62
2023/11/25 10:43:31;;;;;;;11.33;3.50;;;2.50;99.90;;;-141.84;100.00;102189.38;5012684;28;20227;-61
2023/11/25 10:46:03;;;;;;;6.00;3.30;;;2.50;99.90;;;-141.84;100.00;102455.00;5012241;28;20310;-63
2023/11/25 10:48:32;;;;;;;8.80;4.20;;;2.60;99.90;;;-141.84;100.00;106441.06;5012709;28;20230;-63
2023/11/25 10:51:00;;;;;;;7.03;3.57;;;2.50;99.90;;;-141.84;100.00;108568.56;5012399;28;20329;-62
2023/11/25 10:53:31;;;;;;;9.63;4.00;;;2.50;99.90;;;-141.84;100.00;110164.91;5012301;28;20281;-62
2023/11/25 10:56:02;;;;;;;8.33;4.10;;;2.50;99.90;;;-141.84;100.00;109898.81;5012047;28;20235;-62
2023/11/25 10:58:31;;;;;;;9.23;4.17;;;2.60;99.90;;;-141.84;100.00;108568.56;5012885;28;20745;-61